createdAt,value
2022-07-30T00:01:00.886Z,46.80
2022-07-30T00:06:04.362Z,46.70
2022-07-30T00:11:09.508Z,46.70
2022-07-30T00:16:13.466Z,46.60
2022-07-30T00:21:29.143Z,46.50
2022-07-30T00:26:41.445Z,46.30
2022-07-30T00:31:44.804Z,46.30
2022-07-30T00:36:48.229Z,46.30
2022-07-30T00:41:58.404Z,46.40
2022-07-30T00:47:02.131Z,46.20
2022-07-30T00:52:06.335Z,46.20
2022-07-30T00:57:11.314Z,46.10
2022-07-30T01:02:14.729Z,46.20
2022-07-30T01:07:18.457Z,46.20
2022-07-30T01:12:27.015Z,46.20
2022-07-30T01:17:30.816Z,46.10
2022-07-30T01:22:46.725Z,46.20
2022-07-30T01:27:55.114Z,47.30
2022-07-30T01:32:59.992Z,46.10
2022-07-30T01:38:05.228Z,46.10
2022-07-30T01:43:11.222Z,46.10
2022-07-30T01:48:17.630Z,46.10
2022-07-30T01:53:26.260Z,46.20
2022-07-30T01:58:36.653Z,46.20
2022-07-30T02:03:40.382Z,46.10
2022-07-30T02:08:46.981Z,46.20
2022-07-30T02:13:55.704Z,46.20
2022-07-30T02:19:06.899Z,46.10
2022-07-30T02:24:14.914Z,46.20
2022-07-30T02:29:22.158Z,46.20
2022-07-30T02:34:27.585Z,46.20
2022-07-30T02:39:32.750Z,46.30
2022-07-30T02:44:39.718Z,46.30
2022-07-30T02:49:45.547Z,46.30
2022-07-30T02:54:49.940Z,46.50
2022-07-30T02:59:55.989Z,46.50
2022-07-30T03:05:01.387Z,46.80
2022-07-30T03:10:06.306Z,46.90
2022-07-30T03:15:12.561Z,47.00
2022-07-30T03:20:19.345Z,46.90
2022-07-30T03:25:25.594Z,46.90
2022-07-30T03:30:30.865Z,47.00
2022-07-30T03:35:35.491Z,47.10
2022-07-30T03:40:39.251Z,47.10
2022-07-30T03:45:45.834Z,47.30
2022-07-30T03:50:50.766Z,47.20
2022-07-30T03:55:56.129Z,47.30
2022-07-30T04:01:01.200Z,47.40
2022-07-30T04:06:04.690Z,47.50
2022-07-30T04:11:08.047Z,47.60
2022-07-30T04:16:39.313Z,47.50
2022-07-30T04:21:43.957Z,47.70
2022-07-30T04:26:48.726Z,47.80
2022-07-30T04:31:54.648Z,47.90
2022-07-30T04:36:58.254Z,47.90
2022-07-30T04:42:01.758Z,47.90
2022-07-30T04:47:06.906Z,47.90
2022-07-30T04:52:12.433Z,48.00
2022-07-30T04:57:18.094Z,48.10
2022-07-30T05:02:25.589Z,48.20
2022-07-30T05:07:29.887Z,48.20
2022-07-30T05:12:37.592Z,48.10
2022-07-30T05:17:42.420Z,48.00
2022-07-30T05:22:51.158Z,48.10
2022-07-30T05:27:56.780Z,48.10
2022-07-30T05:33:03.751Z,48.00
2022-07-30T05:38:15.932Z,48.10
2022-07-30T05:43:19.276Z,48.00
2022-07-30T05:48:23.993Z,47.90
2022-07-30T05:53:27.401Z,47.80
2022-07-30T05:58:30.746Z,47.70
2022-07-30T06:03:35.772Z,47.80
2022-07-30T06:08:39.186Z,47.70
2022-07-30T06:13:44.516Z,47.70
2022-07-30T06:18:49.417Z,47.70
2022-07-30T06:23:52.836Z,47.70
2022-07-30T06:28:56.260Z,47.70
2022-07-30T06:34:00.963Z,47.80
2022-07-30T06:39:04.823Z,47.70
2022-07-30T06:44:08.170Z,47.70
2022-07-30T06:49:13.003Z,47.70
2022-07-30T06:54:16.708Z,48.30
2022-07-30T06:59:20.378Z,47.90
2022-07-30T07:04:25.409Z,47.90
2022-07-30T07:09:28.777Z,47.80
2022-07-30T07:14:33.289Z,48.00
2022-07-30T07:19:39.729Z,47.90
2022-07-30T07:25:02.159Z,48.80
2022-07-30T07:30:07.384Z,47.80
2022-07-30T07:35:13.818Z,47.50
2022-07-30T07:40:17.300Z,47.40
2022-07-30T07:45:20.833Z,47.50
2022-07-30T07:50:25.615Z,47.30
2022-07-30T07:55:29.167Z,47.20
2022-07-30T08:00:36.469Z,46.90
2022-07-30T08:06:02.080Z,46.70
2022-07-30T08:11:06.426Z,46.70
2022-07-30T08:16:12.677Z,46.80
2022-07-30T08:21:17.866Z,46.60
2022-07-30T08:26:22.007Z,46.50
2022-07-30T08:31:25.779Z,46.30
2022-07-30T08:36:30.486Z,46.20
2022-07-30T08:41:34.643Z,46.00
2022-07-30T08:46:41.740Z,46.20
2022-07-30T08:51:52.644Z,46.40
2022-07-30T08:56:56.456Z,47.00
2022-07-30T09:02:00.506Z,47.50
2022-07-30T09:07:05.814Z,49.10
2022-07-30T09:12:37.824Z,48.60
2022-07-30T09:17:52.987Z,48.60
2022-07-30T09:23:01.908Z,48.60
2022-07-30T09:28:11.147Z,49.20
2022-07-30T09:33:35.181Z,50.70
2022-07-30T09:38:46.233Z,51.50
2022-07-30T09:43:51.804Z,52.20
2022-07-30T09:49:15.730Z,53.70
2022-07-30T09:54:20.831Z,53.80
2022-07-30T09:59:28.449Z,54.90
2022-07-30T10:04:40.381Z,55.30
2022-07-30T10:09:47.033Z,56.10
2022-07-30T10:14:53.187Z,56.60
2022-07-30T10:25:20.904Z,58.80
2022-07-30T10:30:29.293Z,60.00
2022-07-30T10:35:37.868Z,60.30
2022-07-30T10:40:50.624Z,61.10
2022-07-30T10:46:05.095Z,62.50
2022-07-30T10:51:13.135Z,61.90
2022-07-30T10:56:30.474Z,63.30
2022-07-30T11:02:11.405Z,63.90
2022-07-30T11:07:31.350Z,64.80
2022-07-30T11:12:57.489Z,64.90
2022-07-30T11:18:04.400Z,64.20
2022-07-30T11:23:35.586Z,64.20
2022-07-30T11:28:42.801Z,65.50
2022-07-30T11:33:46.453Z,65.20
2022-07-30T11:39:06.774Z,65.30
2022-07-30T11:44:31.975Z,65.20
2022-07-30T11:49:38.386Z,65.30
2022-07-30T11:54:53.529Z,65.20
2022-07-30T11:59:58.609Z,65.80
2022-07-30T12:05:02.110Z,65.70
2022-07-30T12:10:16.334Z,65.50
2022-07-30T12:15:35.140Z,65.80
2022-07-30T12:20:39.073Z,65.90
2022-07-30T12:25:47.566Z,66.00
2022-07-30T12:30:53.305Z,66.30
2022-07-30T12:35:58.309Z,66.30
2022-07-30T12:41:04.747Z,67.00
2022-07-30T12:46:13.166Z,67.40
2022-07-30T12:51:18.765Z,68.00
2022-07-30T12:56:24.824Z,68.10
2022-07-30T13:01:43.081Z,68.30
2022-07-30T13:07:03.901Z,69.00
2022-07-30T13:12:10.138Z,68.80
2022-07-30T13:17:15.193Z,69.30
2022-07-30T13:22:18.817Z,69.40
2022-07-30T13:27:22.416Z,69.70
2022-07-30T13:32:27.056Z,69.80
2022-07-30T13:37:37.673Z,70.20
2022-07-30T13:42:42.409Z,70.90
2022-07-30T13:47:48.481Z,70.60
2022-07-30T13:52:52.192Z,71.00
2022-07-30T13:57:55.492Z,71.00
2022-07-30T14:03:00.830Z,72.00
2022-07-30T14:08:05.332Z,72.20
2022-07-30T14:13:10.328Z,72.80
2022-07-30T14:18:19.627Z,72.90
2022-07-30T14:23:23.002Z,73.30
2022-07-30T14:28:26.678Z,73.30
2022-07-30T14:33:31.486Z,73.20
2022-07-30T14:38:36.342Z,73.30
2022-07-30T14:43:39.731Z,73.30
2022-07-30T14:48:44.625Z,74.30
2022-07-30T14:53:48.116Z,74.10
2022-07-30T14:58:51.662Z,75.20
2022-07-30T15:03:56.548Z,75.80
2022-07-30T15:09:00.575Z,75.50
2022-07-30T15:14:04.426Z,75.30
2022-07-30T15:19:09.841Z,75.40
2022-07-30T15:24:13.564Z,75.40
2022-07-30T15:29:17.150Z,75.30
2022-07-30T15:34:22.532Z,75.00
2022-07-30T15:39:28.305Z,75.00
2022-07-30T15:44:32.269Z,74.80
2022-07-30T15:49:37.139Z,75.10
2022-07-30T16:00:19.197Z,75.40
2022-07-30T16:11:11.272Z,76.40
2022-07-30T16:16:15.321Z,76.50
2022-07-30T16:21:19.583Z,76.70
2022-07-30T16:26:24.367Z,77.30
2022-07-30T16:31:27.726Z,76.70
2022-07-30T16:36:31.273Z,77.10
2022-07-30T16:41:36.623Z,77.10
2022-07-30T16:46:40.519Z,77.20
2022-07-30T16:51:47.037Z,77.60
2022-07-30T16:56:52.858Z,77.90
2022-07-30T17:01:58.002Z,78.20
2022-07-30T17:07:01.764Z,78.10
2022-07-30T17:12:11.834Z,78.60
2022-07-30T17:17:16.129Z,78.90
2022-07-30T17:22:19.905Z,78.40
2022-07-30T17:27:26.710Z,78.20
2022-07-30T17:32:30.459Z,78.40
2022-07-30T17:37:34.075Z,79.00
2022-07-30T17:42:40.065Z,79.20
2022-07-30T17:47:43.406Z,80.30
2022-07-30T17:52:47.437Z,79.20
2022-07-30T17:57:54.827Z,79.30
2022-07-30T18:02:59.250Z,79.10
2022-07-30T18:08:03.680Z,79.20
2022-07-30T18:13:26.455Z,79.50
2022-07-30T18:18:31.261Z,79.80
2022-07-30T18:23:35.283Z,79.60
2022-07-30T18:28:40.034Z,79.90
2022-07-30T18:33:43.408Z,80.10
2022-07-30T18:38:49.819Z,80.20
2022-07-30T18:43:56.157Z,80.30
2022-07-30T18:49:10.791Z,80.10
2022-07-30T18:54:23.883Z,80.10
2022-07-30T18:59:28.658Z,80.20
2022-07-30T19:04:32.304Z,79.90
2022-07-30T19:09:36.217Z,79.90
2022-07-30T19:14:41.273Z,80.40
2022-07-30T19:19:45.190Z,80.30
2022-07-30T19:24:49.068Z,80.20
2022-07-30T19:29:53.818Z,80.20
2022-07-30T19:34:57.477Z,80.30
2022-07-30T19:40:06.006Z,80.50
2022-07-30T19:45:27.091Z,80.70
2022-07-30T19:50:51.010Z,80.50
2022-07-30T19:55:54.680Z,80.80
2022-07-30T20:01:00.426Z,81.10
2022-07-30T20:06:07.219Z,81.20
2022-07-30T20:11:10.882Z,81.30
2022-07-30T20:16:21.421Z,81.30
2022-07-30T20:22:06.815Z,81.40
2022-07-30T20:26:48.416Z,81.70
2022-07-30T20:31:53.418Z,81.40
2022-07-30T20:36:56.875Z,81.60
2022-07-30T20:42:09.086Z,81.60
2022-07-30T20:52:46.993Z,81.90
2022-07-30T20:58:01.175Z,82.10
2022-07-30T21:03:17.206Z,82.10
2022-07-30T21:08:25.222Z,82.30
2022-07-30T21:13:29.372Z,83.40
2022-07-30T21:18:37.099Z,82.40
2022-07-30T21:23:40.505Z,82.00
2022-07-30T21:28:43.860Z,82.10
2022-07-30T21:33:48.902Z,82.50
2022-07-30T21:38:52.274Z,82.50
2022-07-30T21:43:56.070Z,82.20
2022-07-30T21:49:01.744Z,82.30
2022-07-30T21:54:07.030Z,83.20
2022-07-30T21:59:10.780Z,82.40
2022-07-30T22:04:16.632Z,82.70
2022-07-30T22:09:34.242Z,82.60
2022-07-30T22:14:38.450Z,82.40
2022-07-30T22:19:43.251Z,82.90
2022-07-30T22:24:47.343Z,83.60
2022-07-30T22:29:50.921Z,83.70
2022-07-30T22:35:00.409Z,83.60
2022-07-30T22:40:06.678Z,83.50
2022-07-30T22:45:10.797Z,83.50
2022-07-30T22:50:26.082Z,83.80
2022-07-30T22:55:29.852Z,83.70
2022-07-30T23:00:33.380Z,83.60
2022-07-30T23:05:39.994Z,83.60
2022-07-30T23:10:46.440Z,83.40
2022-07-30T23:12:18.531Z,81.90
2022-07-30T23:15:50.258Z,83.10
2022-07-30T23:20:58.491Z,83.00
2022-07-30T23:26:06.259Z,83.00
2022-07-30T23:31:09.671Z,82.70
2022-07-30T23:36:14.402Z,82.90
2022-07-30T23:41:30.687Z,82.90
2022-07-30T23:46:34.408Z,82.90
2022-07-30T23:51:39.497Z,82.90
2022-07-30T23:56:42.895Z,82.70
